Time;durP1;ratioP1;P1;durP2;ratioP2;P2;SDS_P1;SDS_P2;PMS_P1;PMS_P2;Temp;Humidity;BMP_temperature;BMP_pressure;BME280_temperature;BME280_humidity;BME280_pressure;Samples;Min_cycle;Max_cycle;Signal;HPM_P1;HPM_P2
2021/06/25 00:03:53;;;;;;;16.40;11.15;;;;;;;14.13;72.41;100688.34;10247892;28;20762;-73
2021/06/25 00:08:58;;;;;;;15.35;11.18;;;;;;;13.90;73.34;100683.19;10266095;28;20193;-73
2021/06/25 00:14:01;;;;;;;18.38;11.02;;;;;;;13.91;73.32;100678.63;10265498;28;20212;-74
2021/06/25 00:19:04;;;;;;;17.23;11.40;;;;;;;13.93;73.18;100685.59;10265950;28;20224;-73
2021/06/25 00:24:09;;;;;;;20.50;11.68;;;;;;;13.99;73.17;100686.00;10265327;28;20311;-73
2021/06/25 00:29:11;;;;;;;20.83;11.98;;;;;;;14.08;72.98;100685.19;10265709;28;20200;-73
2021/06/25 00:34:16;;;;;;;24.27;13.07;;;;;;;14.17;72.67;100692.44;10265187;28;20661;-74
2021/06/25 00:39:20;;;;;;;21.65;12.50;;;;;;;14.40;72.20;100678.69;10265447;28;20191;-73
2021/06/25 00:44:23;;;;;;;18.50;11.88;;;;;;;14.56;71.66;100679.84;10264870;28;20311;-73
2021/06/25 00:49:26;;;;;;;15.82;10.93;;;;;;;14.52;71.46;100691.09;10265019;28;20302;-73
2021/06/25 00:54:30;;;;;;;22.05;13.25;;;;;;;14.55;71.55;100694.34;10264820;28;20219;-74
2021/06/25 00:59:33;;;;;;;17.48;10.95;;;;;;;14.68;71.18;100699.47;10264940;28;20228;-73
2021/06/25 01:04:37;;;;;;;20.42;10.68;;;;;;;14.78;71.29;100702.16;10264270;28;20599;-73
2021/06/25 01:09:42;;;;;;;16.60;11.13;;;;;;;14.75;70.76;100697.88;10264120;28;20200;-73
2021/06/25 01:14:46;;;;;;;20.73;12.52;;;;;;;14.66;71.10;100696.06;10267656;28;20219;-73
2021/06/25 01:19:49;;;;;;;19.85;12.13;;;;;;;14.47;71.85;100693.34;10271363;28;20697;-73
2021/06/25 01:24:53;;;;;;;20.63;12.55;;;;;;;14.44;71.84;100689.09;10270704;28;20216;-74
2021/06/25 01:29:57;;;;;;;19.75;12.25;;;;;;;14.53;71.76;100692.78;10271561;28;20212;-73
2021/06/25 01:35:02;;;;;;;17.67;11.88;;;;;;;14.71;71.77;100674.00;10253035;28;20736;-73
2021/06/25 01:40:10;;;;;;;19.90;12.45;;;;;;;14.69;71.29;100674.13;10271048;28;20236;-74
2021/06/25 01:45:16;;;;;;;16.77;11.13;;;;;;;14.53;71.44;100666.59;10270093;28;20647;-74
2021/06/25 01:50:22;;;;;;;18.20;11.15;;;;;;;14.50;71.69;100666.88;10270542;28;20561;-75
2021/06/25 01:55:27;;;;;;;17.10;11.80;;;;;;;14.45;71.80;100660.22;10270133;28;20713;-74
2021/06/25 02:00:30;;;;;;;20.02;11.73;;;;;;;14.38;71.98;100659.91;10270159;28;20287;-74
2021/06/25 02:05:34;;;;;;;18.98;11.57;;;;;;;14.26;72.29;100650.22;10269580;28;20303;-74
2021/06/25 02:10:39;;;;;;;19.02;12.02;;;;;;;14.18;72.84;100648.25;10269821;28;20231;-76
2021/06/25 02:15:42;;;;;;;22.33;12.93;;;;;;;14.12;72.93;100643.38;10269329;28;20209;-74
2021/06/25 02:20:45;;;;;;;20.17;11.48;;;;;;;14.13;72.89;100634.31;10269586;28;20197;-73
2021/06/25 02:25:50;;;;;;;20.63;12.50;;;;;;;14.06;72.91;100628.59;10268193;28;20221;-73
2021/06/25 02:30:53;;;;;;;18.42;12.27;;;;;;;14.01;73.11;100640.81;10269087;28;20204;-73
2021/06/25 02:35:56;;;;;;;22.10;13.25;;;;;;;13.88;73.48;100638.41;10268527;28;20387;-73
2021/06/25 02:41:00;;;;;;;22.05;13.52;;;;;;;13.82;73.56;100639.81;10268797;28;20199;-73
2021/06/25 02:46:03;;;;;;;21.23;12.73;;;;;;;13.71;74.13;100638.09;10308180;23;20255;-72
2021/06/25 02:51:06;;;;;;;20.65;12.50;;;;;;;13.62;74.35;100643.44;10311046;28;20214;-72
2021/06/25 02:56:11;;;;;;;21.52;13.52;;;;;;;13.61;74.37;100641.75;10293092;28;20226;-72
2021/06/25 03:01:14;;;;;;;19.67;12.27;;;;;;;13.59;74.21;100643.72;10311408;28;20575;-72
2021/06/25 03:06:17;;;;;;;21.88;12.90;;;;;;;13.47;74.94;100635.75;10294928;28;20335;-72
2021/06/25 03:11:21;;;;;;;19.70;13.02;;;;;;;13.56;74.88;100639.47;10292750;28;20219;-73
2021/06/25 03:16:24;;;;;;;22.63;12.45;;;;;;;13.64;74.75;100626.13;10309955;28;20291;-72
2021/06/25 03:21:27;;;;;;;21.67;12.48;;;;;;;13.66;74.72;100626.00;10311708;28;20292;-73
2021/06/25 03:26:31;;;;;;;21.88;12.93;;;;;;;13.74;74.74;100623.47;10309111;28;20700;-73
2021/06/25 03:31:35;;;;;;;21.90;14.25;;;;;;;13.82;74.57;100620.03;10309825;28;20280;-73
2021/06/25 03:36:38;;;;;;;25.40;14.38;;;;;;;13.83;74.75;100628.03;10308085;28;20237;-73
2021/06/25 03:41:42;;;;;;;23.75;14.30;;;;;;;13.78;74.61;100632.13;10309714;28;20216;-73
2021/06/25 03:46:46;;;;;;;22.90;14.48;;;;;;;13.63;75.03;100627.13;10308863;28;20303;-72
2021/06/25 03:51:49;;;;;;;19.98;13.05;;;;;;;13.73;75.03;100627.13;10310444;28;20200;-71
2021/06/25 03:56:54;;;;;;;20.35;12.93;;;;;;;13.70;75.67;100630.13;10308380;28;20195;-73
2021/06/25 04:01:57;;;;;;;22.20;12.68;;;;;;;13.78;75.62;100624.88;10308410;28;20562;-74
2021/06/25 04:07:00;;;;;;;23.13;13.02;;;;;;;14.01;75.24;100619.22;10290410;28;20226;-73
2021/06/25 04:12:05;;;;;;;25.33;13.75;;;;;;;14.05;74.36;100612.56;10307714;28;20296;-73
2021/06/25 04:17:08;;;;;;;23.58;13.65;;;;;;;14.21;74.11;100620.94;10311530;28;20266;-73
2021/06/25 04:22:11;;;;;;;22.30;13.23;;;;;;;14.40;73.67;100625.53;10311833;28;20196;-73
2021/06/25 04:27:16;;;;;;;25.05;13.75;;;;;;;14.60;72.94;100627.19;10307713;28;20219;-73
2021/06/25 04:32:20;;;;;;;23.48;15.43;;;;;;;14.76;72.69;100631.16;10307628;28;20271;-73
2021/06/25 04:37:23;;;;;;;21.48;14.15;;;;;;;14.81;72.48;100629.72;10308018;28;20288;-73
2021/06/25 04:42:28;;;;;;;26.35;14.55;;;;;;;14.95;72.62;100630.25;10308239;28;20295;-73
2021/06/25 04:47:31;;;;;;;26.63;14.70;;;;;;;15.08;72.50;100624.50;10308650;28;20208;-73
2021/06/25 04:52:34;;;;;;;25.40;13.80;;;;;;;15.20;71.83;100616.06;10315979;28;20709;-73
2021/06/25 04:57:39;;;;;;;23.60;14.20;;;;;;;15.29;71.23;100633.25;10315263;28;20271;-73
2021/06/25 05:02:42;;;;;;;23.50;14.60;;;;;;;14.93;72.30;100629.56;10317652;28;20208;-73
2021/06/25 05:07:45;;;;;;;24.35;14.38;;;;;;;14.92;72.56;100622.41;10317101;28;20302;-73
2021/06/25 05:12:49;;;;;;;25.85;15.27;;;;;;;14.92;72.54;100615.19;10315409;28;20216;-71
2021/06/25 05:17:53;;;;;;;25.80;15.93;;;;;;;15.27;71.93;100610.91;10295881;28;20197;-73
2021/06/25 05:23:18;;;;;;;24.65;15.57;;;;;;;15.78;70.02;100614.94;10313714;28;20216;-73
2021/06/25 05:28:22;;;;;;;24.00;16.02;;;;;;;15.89;68.98;100616.56;10294946;28;20207;-73
2021/06/25 05:33:25;;;;;;;29.63;15.02;;;;;;;15.97;69.56;100607.69;10255359;28;20244;-73
2021/06/25 05:38:28;;;;;;;27.10;16.38;;;;;;;15.87;68.22;100607.75;10255369;28;20213;-73
2021/06/25 05:43:32;;;;;;;23.85;15.15;;;;;;;15.75;68.67;100611.69;10270284;28;20239;-73
2021/06/25 05:48:35;;;;;;;24.77;16.60;;;;;;;15.57;69.91;100622.47;10254353;28;20918;-73
2021/06/25 05:53:39;;;;;;;32.97;17.73;;;;;;;15.58;70.61;100624.19;10269040;28;20215;-73
2021/06/25 05:58:43;;;;;;;27.15;16.45;;;;;;;16.28;68.79;100624.41;10272011;28;20285;-73
2021/06/25 06:03:46;;;;;;;28.73;17.00;;;;;;;16.28;68.04;100635.25;10272019;28;20219;-74
2021/06/25 06:08:49;;;;;;;29.55;18.13;;;;;;;15.97;68.98;100638.31;10271986;28;20217;-73
2021/06/25 06:13:53;;;;;;;27.33;17.25;;;;;;;16.23;68.08;100634.84;10272197;28;20230;-73
2021/06/25 06:18:56;;;;;;;31.08;18.55;;;;;;;16.48;67.49;100634.09;10252242;28;20197;-73
2021/06/25 06:34:44;;;;;;;31.88;19.52;;;;;;;17.35;66.75;100645.88;10269900;28;20224;-73
2021/06/25 06:39:47;;;;;;;28.45;17.15;;;;;;;17.17;65.79;100648.69;10269438;28;20196;-73
2021/06/25 06:44:51;;;;;;;27.40;16.85;;;;;;;17.26;64.12;100649.56;10241885;28;20592;-73
2021/06/25 06:49:54;;;;;;;31.05;17.38;;;;;;;17.99;64.25;100651.75;10269781;28;20216;-72
2021/06/25 06:54:57;;;;;;;23.90;15.63;;;;;;;17.50;63.35;100657.00;10272011;28;20227;-73
2021/06/25 07:00:02;;;;;;;23.35;15.98;;;;;;;17.45;62.81;100660.19;10269501;28;20193;-73
2021/06/25 07:05:06;;;;;;;22.80;14.90;;;;;;;17.08;62.67;100652.31;10269378;28;20219;-73
2021/06/25 07:10:10;;;;;;;27.88;16.92;;;;;;;16.97;63.30;100658.00;10251399;28;20231;-72
2021/06/25 07:15:14;;;;;;;19.45;13.10;;;;;;;16.92;62.07;100663.94;10249742;28;20225;-73
2021/06/25 07:20:18;;;;;;;19.83;12.93;;;;;;;16.50;60.64;100663.75;10268674;28;20610;-73
2021/06/25 07:25:21;;;;;;;22.88;14.25;;;;;;;16.08;62.35;100665.19;10267980;28;20217;-73
2021/06/25 07:30:26;;;;;;;23.05;14.57;;;;;;;16.38;62.31;100657.72;10268462;28;20220;-73
2021/06/25 07:35:31;;;;;;;24.27;14.93;;;;;;;16.91;61.67;100654.06;10268039;28;20247;-73
2021/06/25 07:40:34;;;;;;;25.95;16.00;;;;;;;17.10;59.09;100658.44;10251392;28;20589;-73
2021/06/25 07:45:38;;;;;;;27.13;16.88;;;;;;;16.38;60.48;100656.88;10250935;28;20231;-73
2021/06/25 07:50:41;;;;;;;32.00;19.27;;;;;;;16.71;61.60;100658.00;10267959;28;20702;-73
2021/06/25 07:55:44;;;;;;;34.70;21.33;;;;;;;17.10;59.34;100663.84;10267276;28;20753;-73
2021/06/25 08:00:49;;;;;;;35.90;22.00;;;;;;;17.21;59.42;100669.03;10267498;28;20267;-73
2021/06/25 08:05:54;;;;;;;36.15;20.38;;;;;;;17.07;59.23;100656.03;10263425;28;20220;-73
2021/06/25 08:10:56;;;;;;;37.83;22.80;;;;;;;17.27;59.33;100664.84;10263679;28;20224;-73
2021/06/25 08:16:01;;;;;;;37.13;21.08;;;;;;;;;;10248828;28;20220;-74
2021/06/25 08:21:04;;;;;;;37.25;22.50;;;;;;;19.29;52.32;100654.63;10266391;28;20200;-73
2021/06/25 08:26:09;;;;;;;34.83;20.17;;;;;;;19.02;52.79;100664.88;10264488;28;20240;-73
2021/06/25 08:31:13;;;;;;;35.85;19.15;;;;;;;19.82;50.60;100670.25;10265750;28;20200;-73
2021/06/25 08:36:16;;;;;;;33.78;20.50;;;;;;;17.75;54.46;100660.66;10280351;28;20225;-73
2021/06/25 08:41:19;;;;;;;38.03;21.85;;;;;;;17.50;55.99;100664.25;10266489;28;20185;-73
2021/06/25 08:46:24;;;;;;;29.85;18.35;;;;;;;17.99;52.78;100645.44;10269082;28;20710;-73
2021/06/25 08:51:27;;;;;;;33.85;18.65;;;;;;;;;;10250656;28;20686;-73
2021/06/25 08:56:32;;;;;;;33.15;17.85;;;;;;;19.06;51.88;100640.88;10265516;28;20690;-73
2021/06/25 09:01:37;;;;;;;29.88;18.55;;;;;;;18.84;50.21;100647.91;10265775;28;20220;-73
2021/06/25 09:06:53;;;;;;;25.85;15.75;;;;;;;19.18;50.37;100651.25;10265124;28;20216;-73
2021/06/25 09:12:16;;;;;;;16.67;10.68;;;;;;;18.78;47.84;100631.22;10265133;28;20284;-73
2021/06/25 09:17:20;;;;;;;21.23;12.32;;;;;;;19.04;46.35;100626.63;10264697;28;20203;-73
2021/06/25 09:22:23;;;;;;;19.45;11.55;;;;;;;19.87;46.51;100629.69;10264732;28;20216;-73
2021/06/25 09:27:27;;;;;;;16.40;11.05;;;;;;;20.05;44.98;100639.47;10261445;28;20681;-73
2021/06/25 09:32:39;;;;;;;14.90;10.38;;;;;;;19.80;43.48;100633.28;10264119;28;20694;-73
2021/06/25 09:37:44;;;;;;;17.67;11.57;;;;;;;20.18;45.08;100627.94;10270948;28;20316;-73
2021/06/25 09:43:07;;;;;;;14.63;10.85;;;;;;;19.17;43.37;100640.50;10269667;28;20314;-73
2021/06/25 09:48:11;;;;;;;12.48;10.45;;;;;;;19.53;42.73;100640.03;10253481;28;20224;-73
2021/06/25 09:53:14;;;;;;;16.25;11.82;;;;;;;20.92;39.54;100628.19;10253559;28;20232;-73
2021/06/25 09:58:27;;;;;;;13.80;10.27;;;;;;;20.29;35.99;100635.69;10270883;28;20646;-73
2021/06/25 10:03:31;;;;;;;15.65;11.75;;;;;;;21.54;39.47;100621.53;10270743;28;20299;-73
2021/06/25 10:08:34;;;;;;;19.83;15.30;;;;;;;21.33;37.11;100634.06;10270551;28;20236;-73
2021/06/25 10:13:39;;;;;;;20.98;14.95;;;;;;;20.60;40.18;100623.88;10270456;28;20219;-73
2021/06/25 10:18:45;;;;;;;21.90;16.83;;;;;;;20.69;40.20;100620.91;10270251;28;20197;-73
2021/06/25 10:23:51;;;;;;;24.08;16.63;;;;;;;20.23;42.43;100626.38;10270400;28;20241;-73
2021/06/25 10:28:55;;;;;;;20.92;16.58;;;;;;;20.98;41.15;100620.13;10270020;28;20224;-73
2021/06/25 10:34:00;;;;;;;19.25;15.88;;;;;;;20.78;40.35;100618.94;10270102;28;20697;-73
2021/06/25 10:39:09;;;;;;;21.65;17.10;;;;;;;20.86;40.18;100610.66;10270389;28;20192;-73
2021/06/25 10:44:36;;;;;;;23.23;18.00;;;;;;;21.65;39.05;100607.38;10269775;28;20250;-74
2021/06/25 10:50:26;;;;;;;20.45;17.73;;;;;;;22.49;39.31;100618.63;10269049;28;20244;-74
2021/06/25 10:55:29;;;;;;;21.70;18.50;;;;;;;21.81;38.05;100612.66;10250133;28;20316;-74
2021/06/25 11:00:55;;;;;;;21.20;16.08;;;;;;;21.04;41.11;100610.34;10269216;28;20249;-74
2021/06/25 11:06:00;;;;;;;20.25;14.68;;;;;;;21.10;40.53;100617.78;10268774;28;20855;-73
2021/06/25 11:11:03;;;;;;;18.90;13.10;;;;;;;21.54;37.89;100608.72;10269185;28;20245;-73
2021/06/25 11:16:21;;;;;;;14.80;12.15;;;;;;;22.44;35.03;100612.06;10251185;28;20228;-73
2021/06/25 11:21:43;;;;;;;17.08;12.73;;;;;;;22.28;34.77;100592.09;10269067;28;20685;-73
2021/06/25 11:26:55;;;;;;;16.95;13.68;;;;;;;21.82;36.64;100610.75;10298704;28;20712;-73
2021/06/25 11:32:09;;;;;;;16.60;12.27;;;;;;;21.72;38.09;100597.38;10284579;28;20221;-73
2021/06/25 11:37:14;;;;;;;14.15;11.23;;;;;;;21.61;36.15;100596.00;10267840;28;20201;-73
2021/06/25 11:42:18;;;;;;;15.30;9.70;;;;;;;21.73;36.78;100604.53;10267701;28;20590;-73
2021/06/25 11:47:25;;;;;;;15.32;8.38;;;;;;;22.16;33.67;100599.13;10267670;28;20189;-73
2021/06/25 11:52:31;;;;;;;10.73;7.25;;;;;;;22.86;30.02;100611.13;10267652;28;20216;-73
2021/06/25 11:57:36;;;;;;;9.75;6.20;;;;;;;22.20;31.59;100597.69;10249086;28;20260;-73
2021/06/25 12:02:42;;;;;;;7.43;5.35;;;;;;;23.55;27.08;100602.03;10267289;28;20213;-73
2021/06/25 12:07:47;;;;;;;5.78;4.50;;;;;;;23.78;24.35;100600.88;10266869;28;20192;-73
2021/06/25 12:13:05;;;;;;;7.40;5.00;;;;;;;23.26;26.08;100597.72;10267030;28;20220;-73
2021/06/25 12:18:18;;;;;;;9.45;6.35;;;;;;;23.20;26.55;100599.38;10266322;28;20201;-73
2021/06/25 12:23:23;;;;;;;7.57;5.43;;;;;;;23.57;30.58;100604.59;10266554;28;20709;-73
2021/06/25 12:28:29;;;;;;;7.88;5.28;;;;;;;24.59;28.33;100597.22;10266000;28;20208;-73
2021/06/25 12:33:34;;;;;;;7.95;5.20;;;;;;;23.39;27.70;100597.78;10266662;28;20274;-73
2021/06/25 12:38:39;;;;;;;8.82;4.65;;;;;;;23.82;25.77;100602.19;10266195;28;20208;-73
2021/06/25 12:43:44;;;;;;;5.90;4.28;;;;;;;24.21;24.62;100593.16;10266057;28;20221;-73
2021/06/25 12:48:48;;;;;;;3.95;3.35;;;;;;;23.94;22.42;100608.72;10265940;28;20600;-73
2021/06/25 12:53:57;;;;;;;5.97;4.13;;;;;;;24.97;23.66;100590.00;10266437;28;20725;-73
2021/06/25 12:59:03;;;;;;;6.40;4.15;;;;;;;25.08;22.61;100591.28;10266546;28;20666;-72
2021/06/25 13:04:20;;;;;;;4.97;4.20;;;;;;;24.52;23.85;100597.25;10265117;28;20287;-73
2021/06/25 13:09:27;;;;;;;6.80;4.20;;;;;;;24.90;25.73;100597.44;10248190;28;20235;-72
2021/06/25 13:14:32;;;;;;;4.32;3.75;;;;;;;25.75;24.54;100602.88;10271598;28;20221;-72
2021/06/25 13:19:41;;;;;;;6.00;3.53;;;;;;;23.94;24.54;100591.44;10268827;28;20232;-73
2021/06/25 13:25:00;;;;;;;6.18;4.03;;;;;;;23.73;23.19;100592.41;10269908;28;20217;-74
2021/06/25 13:30:14;;;;;;;6.93;4.47;;;;;;;23.84;25.60;100597.34;10285387;28;20215;-74
2021/06/25 13:35:18;;;;;;;9.05;4.38;;;;;;;24.59;25.27;100589.84;10269582;28;20312;-74
2021/06/25 13:40:26;;;;;;;7.63;5.55;;;;;;;24.77;25.19;100586.47;10271292;28;20271;-73
2021/06/25 13:45:29;;;;;;;7.00;5.03;;;;;;;25.83;26.76;100582.53;10271080;28;20312;-74
2021/06/25 13:50:45;;;;;;;8.05;5.45;;;;;;;25.88;26.54;100590.13;10271997;28;20287;-74
2021/06/25 13:55:57;;;;;;;5.40;4.03;;;;;;;25.48;25.60;100593.03;10271089;28;20681;-74
2021/06/25 14:01:01;;;;;;;8.27;4.88;;;;;;;24.13;26.87;100587.03;10269826;28;20860;-74
2021/06/25 14:06:06;;;;;;;6.85;5.00;;;;;;;24.01;28.15;100584.06;10270497;28;20689;-74
2021/06/25 14:11:13;;;;;;;5.75;3.95;;;;;;;24.83;27.13;100579.25;10270355;28;20569;-74
2021/06/25 14:16:19;;;;;;;3.40;3.10;;;;;;;25.51;27.70;100587.97;10267390;28;20223;-74
2021/06/25 14:21:25;;;;;;;2.85;2.55;;;;;;;26.65;26.52;100577.06;10269138;28;20271;-74
2021/06/25 14:26:30;;;;;;;5.25;3.15;;;;;;;26.11;29.59;100587.66;10251823;28;20296;-74
2021/06/25 14:31:34;;;;;;;5.88;3.53;;;;;;;25.67;30.72;100583.91;10252133;28;20259;-74
2021/06/25 14:36:37;;;;;;;4.18;3.78;;;;;;;25.23;33.00;100576.44;10265842;28;20275;-73
2021/06/25 14:41:41;;;;;;;5.25;3.88;;;;;;;26.55;30.20;100585.88;10265708;28;20716;-73
2021/06/25 14:46:44;;;;;;;6.90;4.65;;;;;;;26.26;31.17;100576.34;10283478;23;20228;-73
2021/06/25 14:51:48;;;;;;;5.43;4.57;;;;;;;25.83;32.17;100575.09;10268956;28;20331;-74
2021/06/25 14:56:52;;;;;;;6.40;4.13;;;;;;;26.71;31.32;100566.00;10268753;28;20260;-74
2021/06/25 15:01:55;;;;;;;6.32;4.60;;;;;;;24.89;32.85;100562.75;10269139;28;20185;-76
2021/06/25 15:06:58;;;;;;;5.32;4.70;;;;;;;25.41;33.92;100560.91;10269971;28;20276;-76
2021/06/25 15:12:04;;;;;;;5.20;4.10;;;;;;;27.32;31.99;100547.75;10268759;28;20259;-76
2021/06/25 15:17:07;;;;;;;5.43;4.82;;;;;;;26.52;31.96;100551.34;10268777;28;20287;-76
2021/06/25 15:22:10;;;;;;;8.57;6.00;;;;;;;24.34;35.32;100550.31;10270908;28;20212;-74
2021/06/25 15:27:14;;;;;;;7.53;5.88;;;;;;;24.36;36.87;100546.31;10250092;28;20228;-76
2021/06/25 15:32:19;;;;;;;7.30;5.97;;;;;;;28.03;31.41;100537.91;10251323;28;20228;-76
2021/06/25 15:37:22;;;;;;;7.15;6.45;;;;;;;27.33;31.18;100537.56;10269119;28;20216;-74
2021/06/25 15:42:27;;;;;;;7.75;6.72;;;;;;;25.68;33.52;100541.56;10268276;28;20200;-76
2021/06/25 15:47:31;;;;;;;7.72;6.40;;;;;;;26.92;32.00;100548.22;10267194;28;20577;-76
2021/06/25 15:52:34;;;;;;;7.63;6.82;;;;;;;26.29;32.25;100540.09;10267753;28;20210;-76
2021/06/25 15:57:38;;;;;;;8.25;6.78;;;;;;;24.07;37.10;100542.91;10267626;28;20699;-75
2021/06/25 16:02:41;;;;;;;8.18;6.88;;;;;;;23.81;38.76;100537.41;10265004;28;20188;-74
2021/06/25 16:07:44;;;;;;;7.63;6.68;;;;;;;25.60;35.75;100539.88;10249004;28;20200;-74
2021/06/25 16:12:48;;;;;;;8.32;7.20;;;;;;;27.41;32.84;100539.19;10248792;28;20220;-76
2021/06/25 16:17:51;;;;;;;9.90;7.80;;;;;;;25.15;35.52;100533.53;10264866;28;20229;-74
2021/06/25 16:22:54;;;;;;;11.30;8.80;;;;;;;24.60;37.40;100533.00;10266829;28;20240;-74
2021/06/25 16:27:59;;;;;;;12.40;10.38;;;;;;;24.61;38.60;100534.72;10266611;28;20193;-74
2021/06/25 16:33:02;;;;;;;18.58;13.90;;;;;;;24.85;38.76;100527.66;10266375;28;20220;-76
2021/06/25 16:38:05;;;;;;;19.58;14.32;;;;;;;29.18;32.66;100532.03;10266158;28;20203;-75
2021/06/25 16:43:09;;;;;;;21.05;15.05;;;;;;;30.07;30.89;100529.63;10266237;28;20228;-73
2021/06/25 16:48:12;;;;;;;22.33;17.13;;;;;;;25.10;38.68;100533.38;10272491;28;20735;-74
2021/06/25 16:53:35;;;;;;;21.75;15.98;;;;;;;25.72;38.48;100533.72;10270960;28;20228;-73
2021/06/25 16:58:39;;;;;;;20.25;15.60;;;;;;;25.29;39.03;100532.44;10271989;28;20588;-73
2021/06/25 17:03:42;;;;;;;22.73;16.10;;;;;;;24.19;40.48;100526.69;10272135;28;20681;-73
2021/06/25 17:08:45;;;;;;;24.73;16.83;;;;;;;22.75;43.62;100544.06;10271542;28;20207;-74
2021/06/25 17:13:49;;;;;;;21.52;16.88;;;;;;;21.58;46.68;100540.84;10272681;28;20239;-73
2021/06/25 17:18:52;;;;;;;25.40;18.35;;;;;;;20.50;48.84;100547.75;10271921;28;20639;-73
2021/06/25 17:23:56;;;;;;;25.80;17.63;;;;;;;20.75;49.06;100559.25;10271208;28;20213;-74
2021/06/25 17:29:00;;;;;;;25.83;17.85;;;;;;;20.96;48.52;100555.81;10271539;28;20188;-72
2021/06/25 17:34:03;;;;;;;26.10;17.50;;;;;;;20.79;48.95;100555.97;10271695;28;20225;-73
2021/06/25 17:39:06;;;;;;;25.95;17.17;;;;;;;20.13;50.33;100563.91;10271307;28;20214;-73
2021/06/25 17:44:10;;;;;;;24.38;16.88;;;;;;;20.29;50.75;100571.09;10270249;28;20224;-74
2021/06/25 17:49:13;;;;;;;23.00;16.45;;;;;;;20.49;49.75;100568.75;10270002;28;20225;-73
2021/06/25 17:54:16;;;;;;;27.83;17.00;;;;;;;20.72;49.32;100562.38;10266594;28;20779;-73
2021/06/25 17:59:20;;;;;;;23.83;16.23;;;;;;;20.47;49.67;100559.88;10269158;28;20201;-74
2021/06/25 18:04:23;;;;;;;24.40;16.55;;;;;;;20.52;50.05;100562.06;10270196;28;20712;-73
2021/06/25 18:09:27;;;;;;;22.50;16.40;;;;;;;20.43;50.45;100566.75;10267840;28;20200;-73
2021/06/25 18:14:31;;;;;;;20.83;14.95;;;;;;;20.55;50.20;100568.00;10269571;28;20218;-74
2021/06/25 18:19:34;;;;;;;23.58;14.63;;;;;;;20.29;50.11;100571.09;10269993;28;20572;-74
2021/06/25 18:24:37;;;;;;;23.48;14.10;;;;;;;20.81;48.29;100574.03;10266890;28;20212;-73
2021/06/25 18:29:43;;;;;;;19.58;11.68;;;;;;;21.04;47.70;100580.31;10270129;28;20197;-74
2021/06/25 18:34:46;;;;;;;19.80;13.25;;;;;;;21.20;47.14;100573.78;10269877;28;20257;-74
2021/06/25 18:39:49;;;;;;;17.25;11.35;;;;;;;20.79;47.42;100577.81;10270165;28;20226;-74
2021/06/25 18:44:53;;;;;;;21.50;13.82;;;;;;;20.72;48.41;100576.84;10268951;28;20224;-75
2021/06/25 18:49:56;;;;;;;18.15;12.38;;;;;;;20.41;48.87;100587.06;10266717;28;20274;-73
2021/06/25 18:54:59;;;;;;;20.83;13.85;;;;;;;20.41;48.91;100590.66;10268623;28;20212;-74
2021/06/25 19:00:07;;;;;;;16.20;12.82;;;;;;;20.20;49.04;100591.28;10268834;28;20672;-75
2021/06/25 19:05:11;;;;;;;22.40;14.40;;;;;;;20.19;49.07;100599.66;10268181;28;20228;-72
2021/06/25 19:10:19;;;;;;;19.58;11.90;;;;;;;20.16;48.63;100597.28;10265314;28;20209;-74
2021/06/25 19:15:23;;;;;;;20.85;12.85;;;;;;;20.13;48.89;100599.34;10267697;28;20569;-73
2021/06/25 19:20:26;;;;;;;21.83;14.43;;;;;;;20.04;48.98;100596.84;10266398;28;20207;-75
2021/06/25 19:25:30;;;;;;;16.13;12.35;;;;;;;19.88;49.80;100601.41;10267497;28;20820;-73
2021/06/25 19:30:41;;;;;;;16.85;12.02;;;;;;;19.84;49.95;100602.78;10268530;28;20213;-73
2021/06/25 19:35:44;;;;;;;15.70;11.52;;;;;;;19.75;51.93;100612.06;10267240;28;20224;-73
2021/06/25 19:40:48;;;;;;;18.17;12.10;;;;;;;19.60;51.87;100611.94;10228908;29;20674;-72
2021/06/25 19:45:52;;;;;;;17.63;13.30;;;;;;;19.11;52.36;100624.88;10228016;28;20260;-73
2021/06/25 19:50:56;;;;;;;16.75;11.95;;;;;;;18.79;52.68;100626.66;10228105;28;20301;-72
2021/06/25 19:56:00;;;;;;;17.50;12.15;;;;;;;18.71;53.00;100630.19;10223829;28;20217;-73
2021/06/25 20:01:04;;;;;;;20.05;13.15;;;;;;;18.84;52.84;100640.59;10228028;28;20623;-73
2021/06/25 20:06:08;;;;;;;16.73;11.95;;;;;;;18.58;53.18;100644.31;10244684;28;20263;-73
2021/06/25 20:11:11;;;;;;;19.80;13.52;;;;;;;18.65;52.57;100649.06;10267290;28;20292;-73
2021/06/25 20:16:16;;;;;;;21.65;13.63;;;;;;;18.88;52.52;100652.00;10266677;28;20577;-72
2021/06/25 20:21:19;;;;;;;19.20;12.82;;;;;;;18.56;52.60;100659.09;10266067;28;20625;-72
2021/06/25 20:26:22;;;;;;;19.63;12.85;;;;;;;18.77;52.69;100653.16;10266716;28;20777;-73
2021/06/25 20:31:27;;;;;;;19.20;12.63;;;;;;;18.97;52.61;100653.66;10281849;28;20224;-74
2021/06/25 20:36:31;;;;;;;20.80;13.05;;;;;;;18.98;52.12;100660.81;10266582;28;20237;-74
2021/06/25 20:41:34;;;;;;;19.35;13.90;;;;;;;19.09;52.39;100665.03;10266827;28;20196;-73
2021/06/25 20:46:38;;;;;;;18.65;12.93;;;;;;;19.11;52.42;100660.25;10300101;23;20248;-77
2021/06/25 20:51:41;;;;;;;18.25;13.95;;;;;;;19.11;52.59;100669.28;10252447;28;20213;-76
2021/06/25 20:56:44;;;;;;;18.92;13.82;;;;;;;19.12;52.83;100673.72;10208395;29;20221;-75
2021/06/25 21:01:48;;;;;;;23.38;13.18;;;;;;;19.05;52.25;100678.16;10210532;29;20197;-76
2021/06/25 21:06:52;;;;;;;20.67;12.95;;;;;;;18.99;52.70;100679.69;10233633;28;20213;-76
2021/06/25 21:11:55;;;;;;;19.52;13.82;;;;;;;19.00;53.19;100684.09;10237216;28;20237;-76
2021/06/25 21:16:59;;;;;;;18.90;14.35;;;;;;;18.92;52.99;100686.81;10224472;28;20300;-76
2021/06/25 21:22:02;;;;;;;23.52;14.23;;;;;;;18.80;52.98;100688.22;10222365;29;20340;-76
2021/06/25 21:27:05;;;;;;;21.85;14.02;;;;;;;18.87;53.31;100685.66;10222808;28;20224;-75
2021/06/25 21:32:10;;;;;;;21.00;13.70;;;;;;;18.87;53.87;100685.66;10229573;28;20213;-76
2021/06/25 21:37:13;;;;;;;19.50;14.45;;;;;;;18.84;53.73;100694.16;10230210;28;20301;-76
2021/06/25 21:42:16;;;;;;;21.33;13.68;;;;;;;18.79;53.96;100689.25;10228993;29;20200;-76
2021/06/25 21:47:20;;;;;;;19.63;13.45;;;;;;;18.78;54.73;100687.53;10229811;29;20708;-76
2021/06/25 21:52:23;;;;;;;20.88;13.80;;;;;;;18.63;54.08;100690.06;10229933;28;20305;-76
2021/06/25 21:57:26;;;;;;;23.70;13.85;;;;;;;18.58;54.70;100695.16;10229662;28;20304;-76
2021/06/25 22:02:31;;;;;;;20.85;14.88;;;;;;;18.61;54.93;100702.97;10230373;28;20193;-76
2021/06/25 22:07:33;;;;;;;25.77;16.92;;;;;;;18.57;55.10;100705.19;10228791;28;20227;-76
2021/06/25 22:12:36;;;;;;;24.17;17.67;;;;;;;18.62;55.28;100698.38;10229210;28;20554;-76
2021/06/25 22:17:41;;;;;;;29.85;18.77;;;;;;;18.49;55.89;100694.31;10228305;28;20224;-76
2021/06/25 22:22:44;;;;;;;29.23;19.25;;;;;;;18.42;56.17;100701.44;10228584;29;20226;-76
2021/06/25 22:27:47;;;;;;;27.77;19.42;;;;;;;18.34;56.50;100696.81;10227935;28;20668;-76
2021/06/25 22:32:52;;;;;;;28.30;19.25;;;;;;;18.27;56.59;100700.41;10228319;28;20222;-76
2021/06/25 22:37:55;;;;;;;30.10;19.73;;;;;;;18.19;56.93;100698.50;10227911;28;20214;-76
2021/06/25 22:42:58;;;;;;;30.08;20.00;;;;;;;18.07;57.05;100703.41;10227286;28;20209;-76
2021/06/25 22:48:02;;;;;;;27.25;18.65;;;;;;;17.98;57.59;100698.09;10227442;28;20645;-77
2021/06/25 22:53:05;;;;;;;30.10;19.85;;;;;;;17.94;57.59;100705.72;10227912;28;20579;-76
2021/06/25 22:58:08;;;;;;;30.77;19.67;;;;;;;17.93;57.54;100704.00;10227335;28;20585;-76
2021/06/25 23:03:12;;;;;;;29.55;19.63;;;;;;;17.75;57.81;100700.56;10227424;28;20262;-76
2021/06/25 23:08:17;;;;;;;30.10;19.45;;;;;;;17.61;58.42;100708.31;10225564;29;20205;-77
2021/06/25 23:13:20;;;;;;;32.58;21.40;;;;;;;17.51;58.36;100704.84;10227059;28;20215;-76